TimeEDT,TemperatureF,Dew PointF,Humidity,Sea Level PressureIn,VisibilityMPH,Wind Direction,Wind SpeedMPH,Gust SpeedMPH,PrecipitationIn,Events,Conditions,WindDirDegrees,DateUTC
12:14 AM,64.4,60.8,88,29.70,10.0,West,8.1,-,N/A,,Overcast,260,2013-05-23 04:14:00
12:34 AM,64.4,60.8,88,29.71,10.0,West,6.9,-,N/A,,Scattered Clouds,260,2013-05-23 04:34:00
12:54 AM,64.4,60.8,88,29.71,10.0,WSW,8.1,-,N/A,,Clear,250,2013-05-23 04:54:00
1:15 AM,64.4,60.8,88,29.71,10.0,WSW,8.1,-,N/A,,Clear,250,2013-05-23 05:15:00
1:34 AM,64.4,60.8,88,29.71,10.0,WSW,4.6,-,N/A,,Clear,250,2013-05-23 05:34:00
1:54 AM,64.4,60.8,88,29.71,10.0,WSW,4.6,-,N/A,,Clear,250,2013-05-23 05:54:00
2:14 AM,64.4,60.8,88,29.71,7.0,WSW,5.8,-,N/A,,Clear,250,2013-05-23 06:14:00
2:34 AM,64.4,60.8,88,29.71,7.0,SW,5.8,-,N/A,,Scattered Clouds,220,2013-05-23 06:34:00
2:54 AM,64.4,60.8,88,29.71,7.0,SW,5.8,-,N/A,,Scattered Clouds,230,2013-05-23 06:54:00
3:14 AM,64.4,60.8,88,29.71,7.0,SW,4.6,-,N/A,,Clear,230,2013-05-23 07:14:00
3:34 AM,64.4,60.8,88,29.70,7.0,SW,3.5,-,N/A,,Scattered Clouds,220,2013-05-23 07:34:00
3:54 AM,64.4,60.8,88,29.71,5.0,SW,4.6,-,N/A,,Clear,220,2013-05-23 07:54:00
4:14 AM,64.4,60.8,88,29.71,5.0,SW,5.8,-,N/A,,Clear,230,2013-05-23 08:14:00
4:34 AM,64.4,60.8,88,29.71,7.0,WSW,6.9,-,N/A,,Mostly Cloudy,240,2013-05-23 08:34:00
4:54 AM,64.4,59.0,83,29.71,10.0,WSW,6.9,-,N/A,,Mostly Cloudy,250,2013-05-23 08:54:00
5:14 AM,64.4,59.0,83,29.72,10.0,SW,6.9,-,N/A,,Overcast,220,2013-05-23 09:14:00
5:34 AM,64.4,59.0,83,29.72,10.0,WSW,6.9,-,N/A,,Overcast,240,2013-05-23 09:34:00
5:54 AM,64.4,59.0,83,29.72,10.0,WSW,6.9,-,N/A,,Overcast,250,2013-05-23 09:54:00
6:14 AM,64.4,59.0,83,29.73,10.0,WSW,5.8,-,N/A,,Overcast,250,2013-05-23 10:14:00
6:34 AM,62.6,59.0,88,29.73,10.0,WSW,8.1,-,N/A,,Overcast,250,2013-05-23 10:34:00
6:54 AM,64.4,59.0,83,29.74,10.0,WSW,5.8,-,N/A,,Overcast,250,2013-05-23 10:54:00
7:14 AM,64.4,59.0,83,29.74,10.0,WSW,5.8,-,N/A,Rain,Light Rain,250,2013-05-23 11:14:00
7:34 AM,64.4,59.0,83,29.75,10.0,WSW,6.9,-,N/A,,Overcast,240,2013-05-23 11:34:00
7:54 AM,62.6,59.0,88,29.75,7.0,WSW,5.8,-,N/A,Rain,Light Rain,240,2013-05-23 11:54:00
8:14 AM,62.6,59.0,88,29.75,5.0,WSW,3.5,-,N/A,Rain,Rain,240,2013-05-23 12:14:00
8:34 AM,64.4,59.0,83,29.76,10.0,WSW,5.8,-,N/A,,Overcast,250,2013-05-23 12:34:00
8:54 AM,64.4,59.0,83,29.76,10.0,WSW,5.8,-,N/A,,Overcast,240,2013-05-23 12:54:00
9:14 AM,64.4,59.0,83,29.77,10.0,WSW,8.1,-,N/A,,Overcast,240,2013-05-23 13:14:00
9:34 AM,64.4,59.0,83,29.77,10.0,WSW,4.6,-,N/A,,Overcast,250,2013-05-23 13:34:00
9:54 AM,64.4,59.0,83,29.77,10.0,SW,3.5,-,N/A,,Overcast,230,2013-05-23 13:54:00
10:15 AM,66.2,60.8,83,29.78,10.0,WSW,5.8,-,N/A,,Mostly Cloudy,240,2013-05-23 14:15:00
10:34 AM,68.0,59.0,73,29.78,10.0,WSW,6.9,-,N/A,,Mostly Cloudy,240,2013-05-23 14:34:00
10:54 AM,69.8,59.0,68,29.77,10.0,WSW,8.1,-,N/A,,Scattered Clouds,240,2013-05-23 14:54:00
11:14 AM,68.0,57.2,68,29.77,10.0,WSW,9.2,-,N/A,,Mostly Cloudy,250,2013-05-23 15:14:00
11:34 AM,68.0,57.2,68,29.78,10.0,West,4.6,-,N/A,,Mostly Cloudy,270,2013-05-23 15:34:00
11:54 AM,66.2,57.2,73,29.78,10.0,West,13.8,19.6,N/A,,Mostly Cloudy,270,2013-05-23 15:54:00
12:14 PM,64.4,59.0,83,29.79,7.0,NW,8.1,-,0.01,Rain,Light Rain,320,2013-05-23 16:14:00
12:34 PM,64.4,60.8,88,29.79,10.0,NNW,8.1,-,0.01,,Overcast,340,2013-05-23 16:34:00
12:54 PM,64.4,57.2,77,29.79,7.0,NE,18.4,26.5,0.01,,Overcast,40,2013-05-23 16:54:00
1:14 PM,57.2,53.6,88,29.80,5.0,NE,15.0,-,0.02,Rain,Rain,40,2013-05-23 17:14:00
1:34 PM,55.4,51.8,88,29.83,10.0,North,17.3,24.2,0.06,Rain,Light Rain,10,2013-05-23 17:34:00
1:54 PM,53.6,48.2,82,29.83,4.0,North,15.0,23.0,0.06,Rain,Light Rain,10,2013-05-23 17:54:00
2:14 PM,51.8,48.2,88,29.84,10.0,North,13.8,19.6,0.01,,Light Drizzle,360,2013-05-23 18:14:00
2:34 PM,51.8,46.4,82,29.85,7.0,North,11.5,17.3,0.01,Rain,Light Rain,360,2013-05-23 18:34:00
2:54 PM,50.0,46.4,87,29.86,5.0,North,16.1,20.7,0.08,Rain,Heavy Rain,10,2013-05-23 18:54:00
3:14 PM,48.2,46.4,93,29.87,10.0,North,16.1,19.6,0.03,Rain,Light Rain,360,2013-05-23 19:14:00
3:34 PM,48.2,44.6,87,29.88,10.0,North,19.6,25.3,0.04,Rain,Light Rain,360,2013-05-23 19:34:00
3:54 PM,48.2,44.6,87,29.89,10.0,North,16.1,26.5,0.04,Rain,Light Rain,360,2013-05-23 19:54:00
4:14 PM,48.2,44.6,87,29.90,10.0,North,16.1,24.2,N/A,Rain,Light Rain,10,2013-05-23 20:14:00
4:34 PM,48.2,44.6,87,29.91,10.0,North,10.4,18.4,N/A,Rain,Rain,360,2013-05-23 20:34:00
4:54 PM,48.2,44.6,87,29.92,10.0,North,11.5,20.7,0.02,Rain,Light Rain,350,2013-05-23 20:54:00
5:14 PM,46.4,42.8,87,29.93,10.0,North,17.3,20.7,N/A,Rain,Light Rain,350,2013-05-23 21:14:00
5:34 PM,46.4,42.8,87,29.94,10.0,North,18.4,25.3,N/A,,Light Drizzle,360,2013-05-23 21:34:00
5:54 PM,46.4,42.8,87,29.95,10.0,North,17.3,23.0,N/A,,Overcast,360,2013-05-23 21:54:00
6:14 PM,46.4,42.8,87,29.96,10.0,North,12.7,19.6,N/A,Rain,Light Rain,360,2013-05-23 22:14:00
6:34 PM,46.4,42.8,87,29.97,10.0,North,16.1,24.2,0.01,Rain,Rain,350,2013-05-23 22:34:00
6:54 PM,46.4,42.8,87,29.99,10.0,NNW,13.8,23.0,0.02,Rain,Light Rain,340,2013-05-23 22:54:00
7:14 PM,46.4,42.8,87,30.00,10.0,North,16.1,19.6,N/A,Rain,Light Rain,350,2013-05-23 23:14:00
7:34 PM,46.4,42.8,87,30.01,10.0,NNW,11.5,17.3,N/A,Rain,Light Rain,340,2013-05-23 23:34:00
7:54 PM,44.6,41.0,87,30.03,10.0,North,18.4,23.0,N/A,,Light Drizzle,350,2013-05-23 23:54:00
8:14 PM,44.6,39.2,81,30.04,10.0,North,18.4,24.2,0.01,,Overcast,350,2013-05-24 00:14:00
8:34 PM,44.6,39.2,81,30.06,10.0,North,16.1,24.2,0.01,Rain,Light Rain,350,2013-05-24 00:34:00
8:54 PM,44.6,39.2,81,30.06,10.0,North,12.7,24.2,0.01,Rain,Light Rain,360,2013-05-24 00:54:00
9:14 PM,44.6,39.2,81,30.07,10.0,North,15.0,21.9,N/A,Rain,Light Rain,350,2013-05-24 01:14:00
9:34 PM,44.6,37.4,76,30.08,10.0,North,15.0,-,N/A,,Overcast,350,2013-05-24 01:34:00
9:54 PM,44.6,37.4,76,30.09,10.0,North,11.5,18.4,N/A,,Overcast,350,2013-05-24 01:54:00
10:15 PM,44.6,37.4,76,30.10,10.0,North,10.4,16.1,N/A,,Overcast,350,2013-05-24 02:15:00
10:34 PM,44.6,37.4,76,30.11,10.0,NNW,13.8,17.3,N/A,,Overcast,340,2013-05-24 02:34:00
10:54 PM,44.6,37.4,76,30.11,10.0,North,11.5,19.6,N/A,,Overcast,350,2013-05-24 02:54:00
11:14 PM,44.6,37.4,76,30.12,10.0,North,11.5,-,N/A,,Overcast,350,2013-05-24 03:14:00
11:34 PM,46.4,37.4,71,30.12,10.0,North,11.5,-,N/A,,Mostly Cloudy,350,2013-05-24 03:34:00
11:54 PM,44.6,35.6,71,30.13,10.0,NNW,9.2,-,N/A,,Scattered Clouds,340,2013-05-24 03:54:00